createdAt,value
2022-08-02T00:02:28.361Z,15.62
2022-08-02T00:07:28.445Z,15.64
2022-08-02T00:12:28.387Z,15.56
2022-08-02T00:17:28.179Z,15.57
2022-08-02T00:22:28.136Z,15.54
2022-08-02T00:27:28.088Z,15.46
2022-08-02T00:32:28.028Z,15.43
2022-08-02T00:37:27.969Z,15.35
2022-08-02T00:42:27.893Z,15.28
2022-08-02T00:47:27.863Z,15.27
2022-08-02T00:52:31.168Z,15.25
2022-08-02T00:57:27.843Z,15.25
2022-08-02T01:02:27.794Z,15.23
2022-08-02T01:07:27.721Z,15.17
2022-08-02T01:12:27.586Z,15.17
2022-08-02T01:17:27.601Z,15.13
2022-08-02T01:22:45.176Z,15.07
2022-08-02T01:27:28.403Z,15.06
2022-08-02T01:32:28.454Z,15.02
2022-08-02T01:37:27.473Z,14.99
2022-08-02T01:42:27.227Z,14.96
2022-08-02T01:47:27.188Z,14.95
2022-08-02T01:52:27.141Z,14.95
2022-08-02T01:57:27.073Z,14.96
2022-08-02T02:02:30.088Z,14.92
2022-08-02T02:07:26.951Z,14.91
2022-08-02T02:12:26.915Z,14.86
2022-08-02T02:17:52.073Z,14.81
2022-08-02T02:22:27.819Z,14.75
2022-08-02T02:27:26.721Z,14.68
2022-08-02T02:32:26.680Z,14.68
2022-08-02T02:37:26.635Z,14.58
2022-08-02T02:42:26.580Z,14.52
2022-08-02T02:47:41.005Z,14.45
2022-08-02T02:52:27.476Z,14.42
2022-08-02T02:57:26.514Z,14.36
2022-08-02T03:02:26.359Z,14.37
2022-08-02T03:07:26.326Z,14.29
2022-08-02T03:12:31.893Z,14.28
2022-08-02T03:17:26.208Z,14.24
2022-08-02T03:22:26.214Z,14.18
2022-08-02T03:27:26.118Z,14.12
2022-08-02T03:32:26.040Z,14.07
2022-08-02T03:37:25.966Z,14.03
2022-08-02T03:42:25.914Z,14.03
2022-08-02T03:47:25.867Z,14.02
2022-08-02T03:52:25.800Z,13.99
2022-08-02T03:57:25.750Z,13.96
2022-08-02T04:02:25.689Z,13.92
2022-08-02T04:08:34.299Z,13.89
2022-08-02T04:12:26.599Z,13.91
2022-08-02T04:17:25.658Z,14.00
2022-08-02T04:22:26.617Z,14.07
2022-08-02T04:28:15.633Z,14.09
2022-08-02T04:32:26.379Z,14.12
2022-08-02T04:37:25.293Z,14.10
2022-08-02T04:42:25.274Z,14.20
2022-08-02T04:47:54.270Z,14.32
2022-08-02T04:52:26.266Z,14.46
2022-08-02T04:57:25.145Z,14.62
2022-08-02T05:02:25.019Z,14.69
2022-08-02T05:07:24.983Z,14.70
2022-08-02T05:12:25.027Z,14.68
2022-08-02T05:17:24.844Z,14.81
2022-08-02T05:22:24.815Z,15.09
2022-08-02T05:27:24.734Z,15.31
2022-08-02T05:32:25.107Z,15.41
2022-08-02T05:37:24.788Z,15.71
2022-08-02T05:42:24.734Z,15.90
2022-08-02T05:47:24.541Z,16.20
2022-08-02T05:52:24.482Z,16.48
2022-08-02T05:57:24.452Z,16.86
2022-08-02T06:02:28.611Z,17.22
2022-08-02T06:07:25.521Z,17.56
2022-08-02T06:12:25.377Z,17.97
2022-08-02T06:17:24.238Z,18.26
2022-08-02T06:22:35.297Z,18.60
2022-08-02T06:27:25.174Z,19.02
2022-08-02T06:32:25.435Z,19.33
2022-08-02T06:37:32.677Z,19.76
2022-08-02T06:42:27.169Z,20.03
2022-08-02T06:47:23.863Z,20.41
2022-08-02T06:52:27.650Z,20.76
2022-08-02T06:57:24.752Z,21.07
2022-08-02T07:02:23.750Z,21.27
2022-08-02T07:07:23.697Z,21.56
2022-08-02T07:12:23.682Z,21.88
2022-08-02T07:17:23.535Z,22.18
2022-08-02T07:22:23.695Z,22.58
2022-08-02T07:27:23.441Z,22.88
2022-08-02T07:32:23.373Z,22.85
2022-08-02T07:37:35.305Z,23.13
2022-08-02T07:42:24.279Z,23.50
2022-08-02T07:47:23.190Z,23.88
2022-08-02T07:52:23.156Z,24.22
2022-08-02T07:57:23.107Z,24.50
2022-08-02T08:02:23.074Z,24.43
2022-08-02T08:07:22.976Z,24.81
2022-08-02T08:12:22.971Z,25.05
2022-08-02T08:17:22.892Z,25.05
2022-08-02T08:22:22.900Z,25.05
2022-08-02T08:27:22.779Z,24.87
2022-08-02T08:32:22.935Z,25.03
2022-08-02T08:37:22.661Z,25.36
2022-08-02T08:42:22.638Z,25.83
2022-08-02T08:47:22.573Z,25.95
2022-08-02T08:52:22.508Z,26.26
2022-08-02T08:57:22.554Z,25.85
2022-08-02T09:02:26.069Z,26.15
2022-08-02T09:07:23.360Z,26.26
2022-08-02T09:12:22.607Z,26.99
2022-08-02T09:17:24.263Z,26.69
2022-08-02T09:22:22.274Z,26.87
2022-08-02T09:27:22.206Z,27.51
2022-08-02T09:32:22.143Z,27.97
2022-08-02T09:37:22.032Z,28.59
2022-08-02T09:42:21.976Z,28.55
2022-08-02T09:47:21.948Z,28.31
2022-08-02T09:52:21.889Z,28.62
2022-08-02T09:57:22.841Z,28.22
2022-08-02T10:02:22.906Z,27.99
2022-08-02T10:07:22.330Z,29.04
2022-08-02T10:12:21.692Z,29.19
2022-08-02T10:17:21.620Z,29.27
2022-08-02T10:22:21.576Z,28.80
2022-08-02T10:27:21.572Z,28.71
2022-08-02T10:32:21.517Z,27.66
2022-08-02T10:37:21.471Z,27.67
2022-08-02T10:42:21.431Z,28.14
2022-08-02T10:47:21.331Z,28.49
2022-08-02T10:52:21.269Z,29.41
2022-08-02T10:57:21.343Z,29.02
2022-08-02T11:02:21.194Z,28.92
2022-08-02T11:07:21.201Z,29.74
2022-08-02T11:12:21.075Z,29.70
2022-08-02T11:17:21.023Z,29.64
2022-08-02T11:22:25.470Z,30.42
2022-08-02T11:27:22.324Z,30.92
2022-08-02T11:32:20.868Z,30.73
2022-08-02T11:37:20.823Z,30.91
2022-08-02T11:42:20.769Z,30.98
2022-08-02T11:47:20.720Z,30.60
2022-08-02T11:52:20.700Z,30.54
2022-08-02T11:57:21.240Z,30.04
2022-08-02T12:02:21.672Z,29.86
2022-08-02T12:07:20.575Z,30.11
2022-08-02T12:12:21.473Z,30.43
2022-08-02T12:17:20.485Z,29.89
2022-08-02T12:22:24.296Z,30.13
2022-08-02T12:27:21.366Z,30.61
2022-08-02T12:32:20.253Z,30.11
2022-08-02T12:37:30.049Z,30.53
2022-08-02T12:42:20.174Z,30.67
2022-08-02T12:47:21.356Z,30.98
2022-08-02T12:52:20.065Z,31.20
2022-08-02T12:57:20.012Z,31.47
2022-08-02T13:02:20.527Z,31.89
2022-08-02T13:07:19.958Z,31.56
2022-08-02T13:12:19.861Z,31.02
2022-08-02T13:17:19.865Z,30.27
2022-08-02T13:22:19.823Z,30.94
2022-08-02T13:27:20.816Z,30.70
2022-08-02T13:32:19.725Z,30.92
2022-08-02T13:37:20.671Z,30.95
2022-08-02T13:42:19.576Z,30.86
2022-08-02T13:47:35.962Z,31.39
2022-08-02T13:52:20.505Z,31.78
2022-08-02T13:57:20.429Z,32.04
2022-08-02T14:02:19.505Z,32.23
2022-08-02T14:07:19.380Z,32.14
2022-08-02T14:12:19.261Z,32.06
2022-08-02T14:17:19.223Z,32.32
2022-08-02T14:22:19.195Z,31.86
2022-08-02T14:27:19.171Z,32.23
2022-08-02T14:32:19.078Z,32.03
2022-08-02T14:37:19.057Z,31.88
2022-08-02T14:42:18.951Z,31.57
2022-08-02T14:47:19.199Z,31.99
2022-08-02T14:52:19.871Z,32.11
2022-08-02T14:57:18.831Z,32.15
2022-08-02T15:02:18.844Z,32.55
2022-08-02T15:07:19.816Z,32.77
2022-08-02T15:12:18.752Z,33.78
2022-08-02T15:17:18.739Z,33.60
2022-08-02T15:22:19.241Z,34.03
2022-08-02T15:27:18.501Z,33.73
2022-08-02T15:32:18.670Z,32.66
2022-08-02T15:37:18.391Z,31.68
2022-08-02T15:42:18.355Z,31.04
2022-08-02T15:47:18.295Z,30.65
2022-08-02T15:52:18.264Z,30.42
2022-08-02T15:57:18.238Z,30.07
2022-08-02T16:02:18.456Z,29.94
2022-08-02T16:07:18.284Z,29.76
2022-08-02T16:12:18.040Z,29.79
2022-08-02T16:17:48.752Z,29.45
2022-08-02T16:22:18.931Z,29.45
2022-08-02T16:27:17.897Z,29.30
2022-08-02T16:32:18.863Z,29.14
2022-08-02T16:37:18.927Z,28.85
2022-08-02T16:42:25.517Z,29.08
2022-08-02T16:47:18.803Z,29.06
2022-08-02T16:52:18.833Z,29.04
2022-08-02T16:57:19.747Z,28.81
2022-08-02T17:02:18.447Z,28.37
2022-08-02T17:08:16.591Z,27.94
2022-08-02T17:12:18.625Z,27.79
2022-08-02T17:17:17.356Z,27.78
2022-08-02T17:22:17.756Z,27.66
2022-08-02T17:27:17.392Z,27.43
2022-08-02T17:32:19.546Z,27.39
2022-08-02T17:37:17.279Z,27.19
2022-08-02T17:42:19.882Z,27.13
2022-08-02T17:47:17.800Z,27.03
2022-08-02T17:52:51.952Z,27.07
2022-08-02T17:57:17.973Z,26.95
2022-08-02T18:02:17.294Z,26.84
2022-08-02T18:07:16.835Z,26.65
2022-08-02T18:12:18.286Z,26.57
2022-08-02T18:17:16.806Z,26.44
2022-08-02T18:22:16.919Z,26.51
2022-08-02T18:27:17.580Z,26.32
2022-08-02T18:32:16.604Z,26.21
2022-08-02T18:37:17.708Z,26.02
2022-08-02T18:42:17.812Z,25.88
2022-08-02T18:47:16.380Z,25.77
2022-08-02T18:52:31.586Z,25.91
2022-08-02T18:58:17.625Z,25.67
2022-08-02T19:02:17.196Z,25.57
2022-08-02T19:07:16.151Z,25.43
2022-08-02T19:12:26.001Z,25.24
2022-08-02T19:17:55.493Z,25.00
2022-08-02T19:22:20.211Z,24.84
2022-08-02T19:27:15.916Z,24.64
2022-08-02T19:32:41.248Z,24.49
2022-08-02T19:37:17.514Z,24.32
2022-08-02T19:42:16.178Z,24.25
2022-08-02T19:52:21.284Z,24.00
2022-08-02T19:57:19.465Z,23.94
2022-08-02T20:02:16.286Z,23.85
2022-08-02T20:07:19.302Z,23.78
2022-08-02T20:12:16.724Z,23.69
2022-08-02T20:17:15.375Z,23.50
2022-08-02T20:22:15.661Z,23.27
2022-08-02T20:27:23.029Z,23.05
2022-08-02T20:32:16.504Z,22.91
2022-08-02T20:37:56.272Z,22.73
2022-08-02T20:42:23.046Z,22.54
2022-08-02T20:47:16.041Z,22.40
2022-08-02T20:52:23.776Z,22.25
2022-08-02T20:57:15.937Z,22.14
2022-08-02T21:02:16.316Z,22.02
2022-08-02T21:12:15.828Z,21.79
2022-08-02T21:17:18.075Z,21.64
2022-08-02T21:22:15.902Z,21.54
2022-08-02T21:27:53.107Z,21.46
2022-08-02T21:32:15.854Z,21.32
2022-08-02T21:42:22.416Z,21.10
2022-08-02T21:47:15.379Z,21.01
2022-08-02T21:52:14.662Z,20.92
2022-08-02T21:57:16.567Z,20.84
2022-08-02T22:02:14.458Z,20.72
2022-08-02T22:07:14.152Z,20.61
2022-08-02T22:17:15.041Z,20.41
2022-08-02T22:22:14.249Z,20.33
2022-08-02T22:27:13.932Z,20.28
2022-08-02T22:32:21.174Z,20.17
2022-08-02T22:38:15.166Z,20.10
2022-08-02T22:42:14.853Z,19.99
2022-08-02T22:47:15.200Z,19.95
2022-08-02T22:52:14.168Z,19.87
2022-08-02T22:57:13.744Z,19.81
2022-08-02T22:59:03.126Z,21.22
2022-08-02T22:59:04.403Z,20.51
2022-08-02T22:59:07.446Z,24.13
2022-08-02T23:02:13.657Z,19.77
2022-08-02T23:07:13.506Z,19.69
2022-08-02T23:12:13.525Z,19.62
2022-08-02T23:17:13.397Z,19.58
2022-08-02T23:22:13.331Z,19.51
2022-08-02T23:27:13.287Z,19.47
2022-08-02T23:32:13.502Z,19.44
2022-08-02T23:37:13.355Z,19.39
2022-08-02T23:42:13.243Z,19.32
2022-08-02T23:47:13.058Z,19.28
2022-08-02T23:52:13.121Z,19.21
2022-08-02T23:57:20.743Z,19.18
